Terminal Aerodrome Forecast
Issued by NWS

Current Version | Previous Version | Text Only | Print | Product List | Glossary On
Versions: 1 2 3 4 5 6 7 8 9 10 11 12 13 14 15 16 17 18 19
000
FTUS41 KALY 302000 AAA
TAFPSF
TAF AMD
KPSF 302012Z 3020/3118 30014G28KT 6SM HZ OVC020
      TEMPO 3020/3022 2SM -SN BR OVC012
     FM310000 30012KT P6SM SCT025
     FM310300 30011KT P6SM SKC
     FM311200 31012G22KT P6SM SKC=

USA.gov is the U.S. government's official web portal to all federal, state and local government web resources and services.